RYR9447 LMML-LIRF
Flight info
| Callsign | RYR9447 |
|---|---|
| Flight time | 1h 15m |
| Altitude | 38000 |
| Route | GZO M622 SOPIR DCT MABOX DCT ADEXI DCT GIANO DCT TURMO DCT ESINO |
| Aircraft | B738/M-SDFGHIRWXY/SB1 |
Departure
| Time | 2026-05-05 12:32 |
|---|---|
| Airport | Malta International Airport (LMML) |
Arrival
| Time | 2026-05-05 13:48 |
|---|---|
| Airport | Rome–Fiumicino Leonardo da Vinci International Airport (LIRF) |
| Time | Latitude | Longitude | Altitude | Speed | Heading |
|---|---|---|---|---|---|
| 2026-05-05 12:13 | 35.84856 | 14.49455 | 258 ft | 0 kts | 360° |
| 2026-05-05 12:24 | 35.84844 | 14.49456 | 258 ft | 4 kts | 356° |
| 2026-05-05 12:24 | 35.84818 | 14.49460 | 258 ft | 4 kts | 344° |
| 2026-05-05 12:25 | 35.84795 | 14.49470 | 258 ft | 2 kts | 336° |
| 2026-05-05 12:25 | 35.84794 | 14.49471 | 258 ft | 0 kts | 336° |
| 2026-05-05 12:28 | 35.84796 | 14.49468 | 258 ft | 1 kts | 315° |
| 2026-05-05 12:28 | 35.84817 | 14.49416 | 258 ft | 14 kts | 304° |
| 2026-05-05 12:28 | 35.84904 | 14.49303 | 258 ft | 20 kts | 314° |
| 2026-05-05 12:28 | 35.84911 | 14.49161 | 257 ft | 18 kts | 238° |
| 2026-05-05 12:29 | 35.84946 | 14.49034 | 257 ft | 9 kts | 304° |
| 2026-05-05 12:29 | 35.84976 | 14.48965 | 258 ft | 9 kts | 288° |
| 2026-05-05 12:29 | 35.84996 | 14.48877 | 258 ft | 12 kts | 285° |
| 2026-05-05 12:29 | 35.85022 | 14.48765 | 261 ft | 14 kts | 285° |
| 2026-05-05 12:30 | 35.85059 | 14.48641 | 265 ft | 19 kts | 295° |
| 2026-05-05 12:30 | 35.85141 | 14.48504 | 271 ft | 21 kts | 314° |
| 2026-05-05 12:30 | 35.85260 | 14.48358 | 271 ft | 28 kts | 315° |
| 2026-05-05 12:30 | 35.85415 | 14.48167 | 271 ft | 35 kts | 315° |
| 2026-05-05 12:31 | 35.85624 | 14.48032 | 272 ft | 27 kts | 343° |
| 2026-05-05 12:31 | 35.85667 | 14.47954 | 273 ft | 10 kts | 241° |
| 2026-05-05 12:31 | 35.85625 | 14.47912 | 271 ft | 3 kts | 177° |
| 2026-05-05 12:31 | 35.85605 | 14.47926 | 271 ft | 0 kts | 136° |
| 2026-05-05 12:32 | 35.85554 | 14.47987 | 271 ft | 38 kts | 135° |
| 2026-05-05 12:32 | 35.85197 | 14.48427 | 271 ft | 107 kts | 134° |
| 2026-05-05 12:32 | 35.84534 | 14.49239 | 365 ft | 152 kts | 136° |
| 2026-05-05 12:32 | 35.83767 | 14.50175 | 1080 ft | 156 kts | 136° |
| 2026-05-05 12:33 | 35.82970 | 14.51120 | 1678 ft | 171 kts | 144° |
| 2026-05-05 12:33 | 35.81745 | 14.51617 | 1997 ft | 200 kts | 181° |
| 2026-05-05 12:33 | 35.80515 | 14.50986 | 3158 ft | 194 kts | 225° |
| 2026-05-05 12:33 | 35.79875 | 14.49458 | 3744 ft | 215 kts | 252° |
| 2026-05-05 12:34 | 35.79337 | 14.47612 | 4092 ft | 238 kts | 245° |
| 2026-05-05 12:34 | 35.78601 | 14.45761 | 4750 ft | 247 kts | 241° |
| 2026-05-05 12:34 | 35.77755 | 14.43891 | 5382 ft | 250 kts | 239° |
| 2026-05-05 12:34 | 35.76841 | 14.41981 | 5919 ft | 268 kts | 239° |
| 2026-05-05 12:35 | 35.75960 | 14.39910 | 6707 ft | 278 kts | 252° |
| 2026-05-05 12:35 | 35.75732 | 14.37588 | 7658 ft | 279 kts | 275° |
| 2026-05-05 12:35 | 35.76267 | 14.35300 | 8639 ft | 281 kts | 298° |
| 2026-05-05 12:35 | 35.77517 | 14.33437 | 9561 ft | 286 kts | 321° |
| 2026-05-05 12:36 | 35.79278 | 14.32260 | 10446 ft | 293 kts | 336° |
| 2026-05-05 12:36 | 35.81251 | 14.31302 | 10799 ft | 318 kts | 337° |
| 2026-05-05 12:36 | 35.83396 | 14.30288 | 11135 ft | 339 kts | 337° |
| 2026-05-05 12:36 | 35.85627 | 14.29237 | 11868 ft | 345 kts | 337° |
| 2026-05-05 12:37 | 35.87880 | 14.28167 | 12728 ft | 349 kts | 337° |
| 2026-05-05 12:37 | 35.90127 | 14.27089 | 13566 ft | 352 kts | 336° |
| 2026-05-05 12:37 | 35.92424 | 14.25981 | 14347 ft | 356 kts | 336° |
| 2026-05-05 12:37 | 35.94745 | 14.24857 | 15129 ft | 358 kts | 336° |
| 2026-05-05 12:38 | 35.97077 | 14.23724 | 15936 ft | 360 kts | 336° |
| 2026-05-05 12:38 | 35.99426 | 14.22582 | 16698 ft | 364 kts | 336° |
| 2026-05-05 12:38 | 36.01767 | 14.21443 | 17433 ft | 367 kts | 336° |
| 2026-05-05 12:38 | 36.04131 | 14.20211 | 18168 ft | 369 kts | 329° |
| 2026-05-05 12:39 | 36.06283 | 14.18467 | 18863 ft | 370 kts | 321° |
| 2026-05-05 12:39 | 36.08361 | 14.16570 | 19493 ft | 373 kts | 321° |
| 2026-05-05 12:39 | 36.10462 | 14.14648 | 20116 ft | 377 kts | 321° |
| 2026-05-05 12:39 | 36.12587 | 14.12721 | 20739 ft | 380 kts | 321° |
| 2026-05-05 12:40 | 36.14720 | 14.10803 | 21336 ft | 384 kts | 321° |
| 2026-05-05 12:40 | 36.16906 | 14.08852 | 21927 ft | 388 kts | 322° |
| 2026-05-05 12:40 | 36.19111 | 14.06892 | 22510 ft | 391 kts | 322° |
| 2026-05-05 12:40 | 36.21336 | 14.04918 | 23083 ft | 395 kts | 322° |
| 2026-05-05 12:41 | 36.23583 | 14.02925 | 23644 ft | 398 kts | 322° |
| 2026-05-05 12:41 | 36.25818 | 14.00943 | 24119 ft | 401 kts | 322° |
| 2026-05-05 12:41 | 36.28097 | 13.98921 | 24615 ft | 403 kts | 322° |
| 2026-05-05 12:41 | 36.30385 | 13.96889 | 25118 ft | 405 kts | 322° |
| 2026-05-05 12:42 | 36.32686 | 13.94844 | 25601 ft | 408 kts | 322° |
| 2026-05-05 12:42 | 36.34999 | 13.92786 | 26071 ft | 410 kts | 322° |
| 2026-05-05 12:42 | 36.37325 | 13.90715 | 26533 ft | 412 kts | 322° |
| 2026-05-05 12:42 | 36.39668 | 13.88627 | 26985 ft | 415 kts | 322° |
| 2026-05-05 12:43 | 36.42018 | 13.86532 | 27423 ft | 417 kts | 321° |
| 2026-05-05 12:43 | 36.44350 | 13.84450 | 27857 ft | 419 kts | 322° |
| 2026-05-05 12:43 | 36.46730 | 13.82325 | 28290 ft | 421 kts | 321° |
| 2026-05-05 12:43 | 36.49123 | 13.80186 | 28707 ft | 423 kts | 321° |
| 2026-05-05 12:44 | 36.50714 | 13.78764 | 28982 ft | 425 kts | 321° |
| 2026-05-05 12:44 | 36.53895 | 13.75912 | 29518 ft | 427 kts | 321° |
| 2026-05-05 12:44 | 36.56322 | 13.73733 | 29926 ft | 429 kts | 321° |
| 2026-05-05 12:44 | 36.57929 | 13.72288 | 30177 ft | 430 kts | 321° |
| 2026-05-05 12:45 | 36.60362 | 13.70100 | 30492 ft | 432 kts | 321° |
| 2026-05-05 12:45 | 36.62803 | 13.67902 | 30872 ft | 432 kts | 321° |
| 2026-05-05 12:45 | 36.66052 | 13.64977 | 31510 ft | 429 kts | 321° |
| 2026-05-05 12:45 | 36.68432 | 13.62833 | 31964 ft | 427 kts | 321° |
| 2026-05-05 12:46 | 36.70032 | 13.61390 | 32233 ft | 426 kts | 321° |
| 2026-05-05 12:46 | 36.72439 | 13.59216 | 32603 ft | 426 kts | 321° |
| 2026-05-05 12:46 | 36.74837 | 13.57049 | 32993 ft | 426 kts | 321° |
| 2026-05-05 12:46 | 36.77239 | 13.54877 | 33410 ft | 424 kts | 321° |
| 2026-05-05 12:47 | 36.79633 | 13.52711 | 33798 ft | 424 kts | 320° |
| 2026-05-05 12:47 | 36.82024 | 13.50545 | 34153 ft | 424 kts | 320° |
| 2026-05-05 12:47 | 36.84381 | 13.48409 | 34494 ft | 422 kts | 320° |
| 2026-05-05 12:47 | 36.86750 | 13.46261 | 34875 ft | 420 kts | 320° |
| 2026-05-05 12:48 | 36.89108 | 13.44120 | 35228 ft | 419 kts | 320° |
| 2026-05-05 12:48 | 36.91526 | 13.42072 | 35536 ft | 421 kts | 327° |
| 2026-05-05 12:48 | 36.94212 | 13.40554 | 35868 ft | 425 kts | 335° |
| 2026-05-05 12:48 | 36.96983 | 13.39271 | 36221 ft | 423 kts | 335° |
| 2026-05-05 12:49 | 36.99744 | 13.37978 | 36516 ft | 422 kts | 334° |
| 2026-05-05 12:49 | 37.02465 | 13.36688 | 36819 ft | 421 kts | 334° |
| 2026-05-05 12:49 | 37.05201 | 13.35377 | 37147 ft | 420 kts | 334° |
| 2026-05-05 12:49 | 37.07922 | 13.34064 | 37453 ft | 419 kts | 334° |
| 2026-05-05 12:50 | 37.10644 | 13.32745 | 37744 ft | 418 kts | 334° |
| 2026-05-05 12:50 | 37.13356 | 13.31426 | 38047 ft | 417 kts | 334° |
| 2026-05-05 12:50 | 37.18782 | 13.28779 | 38104 ft | 423 kts | 334° |
| 2026-05-05 12:51 | 37.24272 | 13.26100 | 38091 ft | 420 kts | 334° |
| 2026-05-05 12:51 | 37.29674 | 13.23465 | 38089 ft | 416 kts | 334° |
| 2026-05-05 12:52 | 37.35067 | 13.20826 | 38089 ft | 415 kts | 333° |
| 2026-05-05 12:52 | 37.40450 | 13.18187 | 38093 ft | 414 kts | 333° |
| 2026-05-05 12:53 | 37.45789 | 13.15566 | 38091 ft | 414 kts | 333° |
| 2026-05-05 12:53 | 37.51165 | 13.12922 | 38095 ft | 415 kts | 333° |
| 2026-05-05 12:54 | 37.59274 | 13.08928 | 38098 ft | 418 kts | 333° |
| 2026-05-05 12:55 | 37.64676 | 13.06262 | 38092 ft | 419 kts | 333° |
| 2026-05-05 12:55 | 37.70120 | 13.03571 | 38078 ft | 421 kts | 333° |
| 2026-05-05 12:56 | 37.75586 | 13.00865 | 38092 ft | 422 kts | 333° |
| 2026-05-05 12:56 | 37.81031 | 12.98166 | 38088 ft | 423 kts | 333° |
| 2026-05-05 12:57 | 37.86536 | 12.95433 | 38082 ft | 424 kts | 333° |
| 2026-05-05 12:57 | 37.91986 | 12.92722 | 38074 ft | 423 kts | 333° |
| 2026-05-05 12:58 | 37.97475 | 12.89989 | 38081 ft | 423 kts | 333° |
| 2026-05-05 12:58 | 38.02947 | 12.87259 | 38075 ft | 422 kts | 333° |
| 2026-05-05 12:59 | 38.08384 | 12.84541 | 38079 ft | 422 kts | 333° |
| 2026-05-05 12:59 | 38.13839 | 12.81810 | 38081 ft | 421 kts | 333° |
| 2026-05-05 13:00 | 38.22031 | 12.77700 | 38087 ft | 421 kts | 333° |
| 2026-05-05 13:01 | 38.32893 | 12.72236 | 38078 ft | 420 kts | 333° |
| 2026-05-05 13:01 | 38.38327 | 12.69497 | 38073 ft | 419 kts | 333° |
| 2026-05-05 13:02 | 38.43758 | 12.66753 | 38074 ft | 419 kts | 333° |
| 2026-05-05 13:02 | 38.49140 | 12.64031 | 38074 ft | 418 kts | 333° |
| 2026-05-05 13:03 | 38.54551 | 12.61289 | 38079 ft | 417 kts | 333° |
| 2026-05-05 13:03 | 38.59951 | 12.58548 | 38079 ft | 416 kts | 333° |
| 2026-05-05 13:04 | 38.65325 | 12.55816 | 38073 ft | 415 kts | 333° |
| 2026-05-05 13:04 | 38.70668 | 12.53095 | 38076 ft | 414 kts | 332° |
| 2026-05-05 13:05 | 38.76023 | 12.50364 | 38066 ft | 413 kts | 332° |
| 2026-05-05 13:05 | 38.81331 | 12.47652 | 38070 ft | 412 kts | 332° |
| 2026-05-05 13:06 | 38.86663 | 12.44939 | 38067 ft | 412 kts | 334° |
| 2026-05-05 13:06 | 38.92231 | 12.43052 | 38070 ft | 417 kts | 341° |
| 2026-05-05 13:07 | 38.97889 | 12.41432 | 38071 ft | 416 kts | 341° |
| 2026-05-05 13:07 | 39.03545 | 12.39784 | 38060 ft | 416 kts | 341° |
| 2026-05-05 13:08 | 39.09203 | 12.38096 | 38059 ft | 416 kts | 340° |
| 2026-05-05 13:08 | 39.14820 | 12.36402 | 38068 ft | 417 kts | 340° |
| 2026-05-05 13:09 | 39.20486 | 12.34688 | 38062 ft | 417 kts | 340° |
| 2026-05-05 13:09 | 39.26119 | 12.32980 | 38064 ft | 418 kts | 340° |
| 2026-05-05 13:10 | 39.31810 | 12.31253 | 38065 ft | 419 kts | 340° |
| 2026-05-05 13:10 | 39.37474 | 12.29531 | 38068 ft | 420 kts | 340° |
| 2026-05-05 13:11 | 39.43183 | 12.27794 | 38058 ft | 421 kts | 340° |
| 2026-05-05 13:11 | 39.48860 | 12.26063 | 38060 ft | 421 kts | 340° |
| 2026-05-05 13:12 | 39.54572 | 12.24319 | 38055 ft | 421 kts | 340° |
| 2026-05-05 13:12 | 39.60269 | 12.22576 | 38051 ft | 420 kts | 340° |
| 2026-05-05 13:13 | 39.65971 | 12.20829 | 38051 ft | 420 kts | 340° |
| 2026-05-05 13:13 | 39.71627 | 12.19092 | 38055 ft | 419 kts | 340° |
| 2026-05-05 13:14 | 39.77308 | 12.17345 | 38052 ft | 419 kts | 340° |
| 2026-05-05 13:14 | 39.82982 | 12.15597 | 38054 ft | 418 kts | 340° |
| 2026-05-05 13:15 | 39.88613 | 12.13859 | 38052 ft | 418 kts | 340° |
| 2026-05-05 13:15 | 39.94304 | 12.12100 | 38050 ft | 419 kts | 340° |
| 2026-05-05 13:16 | 39.99949 | 12.10352 | 38052 ft | 419 kts | 340° |
| 2026-05-05 13:16 | 40.05637 | 12.08588 | 38048 ft | 418 kts | 340° |
| 2026-05-05 13:17 | 40.08418 | 12.07731 | 38025 ft | 403 kts | 340° |
| 2026-05-05 13:17 | 40.11101 | 12.06907 | 38026 ft | 388 kts | 340° |
| 2026-05-05 13:17 | 40.16269 | 12.05302 | 38058 ft | 381 kts | 339° |
| 2026-05-05 13:18 | 40.21450 | 12.03673 | 37753 ft | 383 kts | 339° |
| 2026-05-05 13:18 | 40.24043 | 12.02861 | 37083 ft | 386 kts | 339° |
| 2026-05-05 13:18 | 40.26715 | 12.02017 | 35866 ft | 405 kts | 339° |
| 2026-05-05 13:19 | 40.29508 | 12.01132 | 34966 ft | 416 kts | 340° |
| 2026-05-05 13:19 | 40.32334 | 12.00249 | 34512 ft | 415 kts | 340° |
| 2026-05-05 13:19 | 40.35128 | 11.99383 | 34234 ft | 409 kts | 340° |
| 2026-05-05 13:19 | 40.37875 | 11.98531 | 33898 ft | 404 kts | 340° |
| 2026-05-05 13:20 | 40.40603 | 11.97681 | 33451 ft | 401 kts | 339° |
| 2026-05-05 13:20 | 40.43278 | 11.96843 | 33000 ft | 400 kts | 339° |
| 2026-05-05 13:20 | 40.45976 | 11.95995 | 32564 ft | 397 kts | 339° |
| 2026-05-05 13:20 | 40.48660 | 11.95151 | 32144 ft | 395 kts | 339° |
| 2026-05-05 13:21 | 40.51328 | 11.94312 | 31747 ft | 393 kts | 339° |
| 2026-05-05 13:21 | 40.53985 | 11.93475 | 31341 ft | 391 kts | 339° |
| 2026-05-05 13:21 | 40.56598 | 11.92650 | 30949 ft | 389 kts | 339° |
| 2026-05-05 13:21 | 40.59225 | 11.91822 | 30562 ft | 387 kts | 339° |
| 2026-05-05 13:22 | 40.61840 | 11.90996 | 30189 ft | 385 kts | 339° |
| 2026-05-05 13:22 | 40.64440 | 11.90174 | 29779 ft | 382 kts | 339° |
| 2026-05-05 13:22 | 40.67022 | 11.89358 | 29378 ft | 378 kts | 339° |
| 2026-05-05 13:22 | 40.69576 | 11.88550 | 28940 ft | 376 kts | 339° |
| 2026-05-05 13:23 | 40.72081 | 11.87756 | 28533 ft | 374 kts | 339° |
| 2026-05-05 13:23 | 40.74606 | 11.86955 | 28131 ft | 371 kts | 339° |
| 2026-05-05 13:23 | 40.77112 | 11.86159 | 27723 ft | 369 kts | 339° |
| 2026-05-05 13:23 | 40.79602 | 11.85368 | 27321 ft | 366 kts | 339° |
| 2026-05-05 13:24 | 40.82076 | 11.84583 | 26922 ft | 364 kts | 340° |
| 2026-05-05 13:24 | 40.84532 | 11.83802 | 26547 ft | 361 kts | 340° |
| 2026-05-05 13:24 | 40.86967 | 11.83152 | 26166 ft | 364 kts | 347° |
| 2026-05-05 13:24 | 40.89510 | 11.82908 | 25784 ft | 365 kts | 351° |
| 2026-05-05 13:25 | 40.92049 | 11.82759 | 25428 ft | 363 kts | 351° |
| 2026-05-05 13:25 | 40.94566 | 11.82619 | 25074 ft | 361 kts | 351° |
| 2026-05-05 13:25 | 40.97071 | 11.82470 | 24732 ft | 359 kts | 351° |
| 2026-05-05 13:25 | 40.99557 | 11.82311 | 24384 ft | 357 kts | 351° |
| 2026-05-05 13:26 | 41.02032 | 11.82144 | 24049 ft | 355 kts | 352° |
| 2026-05-05 13:26 | 41.04459 | 11.81974 | 23700 ft | 353 kts | 352° |
| 2026-05-05 13:26 | 41.06908 | 11.81800 | 23321 ft | 351 kts | 352° |
| 2026-05-05 13:26 | 41.09340 | 11.81625 | 22928 ft | 349 kts | 352° |
| 2026-05-05 13:27 | 41.11761 | 11.81450 | 22531 ft | 347 kts | 352° |
| 2026-05-05 13:27 | 41.14171 | 11.81275 | 22135 ft | 345 kts | 352° |
| 2026-05-05 13:27 | 41.16573 | 11.81100 | 21742 ft | 344 kts | 352° |
| 2026-05-05 13:27 | 41.18957 | 11.80927 | 21377 ft | 342 kts | 352° |
| 2026-05-05 13:28 | 41.21303 | 11.80756 | 21010 ft | 340 kts | 352° |
| 2026-05-05 13:28 | 41.23667 | 11.80584 | 20641 ft | 339 kts | 352° |
| 2026-05-05 13:28 | 41.26012 | 11.80413 | 20276 ft | 338 kts | 352° |
| 2026-05-05 13:28 | 41.28368 | 11.80241 | 19914 ft | 336 kts | 352° |
| 2026-05-05 13:29 | 41.30697 | 11.80071 | 19585 ft | 335 kts | 352° |
| 2026-05-05 13:29 | 41.33020 | 11.79901 | 19245 ft | 333 kts | 353° |
| 2026-05-05 13:29 | 41.35304 | 11.79734 | 18891 ft | 333 kts | 353° |
| 2026-05-05 13:29 | 41.37616 | 11.79565 | 18550 ft | 331 kts | 353° |
| 2026-05-05 13:30 | 41.39933 | 11.79629 | 18200 ft | 334 kts | 3° |
| 2026-05-05 13:30 | 41.42228 | 11.80118 | 17834 ft | 334 kts | 7° |
| 2026-05-05 13:30 | 41.44479 | 11.80719 | 17488 ft | 332 kts | 8° |
| 2026-05-05 13:30 | 41.46743 | 11.81331 | 17140 ft | 330 kts | 7° |
| 2026-05-05 13:31 | 41.48999 | 11.81921 | 16791 ft | 328 kts | 7° |
| 2026-05-05 13:31 | 41.51242 | 11.82484 | 16438 ft | 327 kts | 7° |
| 2026-05-05 13:31 | 41.53471 | 11.83030 | 16118 ft | 324 kts | 7° |
| 2026-05-05 13:31 | 41.55690 | 11.83564 | 15763 ft | 324 kts | 6° |
| 2026-05-05 13:32 | 41.57878 | 11.84085 | 15376 ft | 324 kts | 6° |
| 2026-05-05 13:32 | 41.59964 | 11.84581 | 15021 ft | 324 kts | 7° |
| 2026-05-05 13:32 | 41.62193 | 11.85111 | 14635 ft | 325 kts | 7° |
| 2026-05-05 13:32 | 41.64420 | 11.85640 | 14273 ft | 325 kts | 7° |
| 2026-05-05 13:33 | 41.66659 | 11.86173 | 13891 ft | 326 kts | 7° |
| 2026-05-05 13:33 | 41.68823 | 11.86974 | 13444 ft | 330 kts | 25° |
| 2026-05-05 13:33 | 41.70594 | 11.88927 | 13095 ft | 331 kts | 52° |
| 2026-05-05 13:33 | 41.71682 | 11.91578 | 13066 ft | 320 kts | 70° |
| 2026-05-05 13:34 | 41.72174 | 11.93426 | 13057 ft | 317 kts | 71° |
| 2026-05-05 13:34 | 41.72911 | 11.96220 | 12807 ft | 318 kts | 71° |
| 2026-05-05 13:34 | 41.73829 | 11.98882 | 12638 ft | 313 kts | 51° |
| 2026-05-05 13:34 | 41.75442 | 12.00704 | 12539 ft | 298 kts | 23° |
| 2026-05-05 13:35 | 41.77388 | 12.01459 | 12383 ft | 287 kts | 2° |
| 2026-05-05 13:35 | 41.79329 | 12.01358 | 12186 ft | 281 kts | 342° |
| 2026-05-05 13:35 | 41.81207 | 12.00624 | 11981 ft | 281 kts | 338° |
| 2026-05-05 13:35 | 41.83083 | 11.99818 | 11700 ft | 284 kts | 338° |
| 2026-05-05 13:36 | 41.84963 | 11.99006 | 11433 ft | 283 kts | 338° |
| 2026-05-05 13:36 | 41.86860 | 11.98189 | 11172 ft | 287 kts | 338° |
| 2026-05-05 13:36 | 41.88780 | 11.97365 | 10909 ft | 292 kts | 338° |
| 2026-05-05 13:36 | 41.90701 | 11.96545 | 10650 ft | 295 kts | 338° |
| 2026-05-05 13:37 | 41.92661 | 11.95711 | 10243 ft | 294 kts | 338° |
| 2026-05-05 13:37 | 41.94609 | 11.94884 | 9769 ft | 294 kts | 338° |
| 2026-05-05 13:37 | 41.96568 | 11.94051 | 9053 ft | 299 kts | 339° |
| 2026-05-05 13:37 | 41.98571 | 11.93198 | 8293 ft | 305 kts | 339° |
| 2026-05-05 13:38 | 42.00617 | 11.92327 | 7514 ft | 307 kts | 339° |
| 2026-05-05 13:38 | 42.02661 | 11.91459 | 6793 ft | 308 kts | 339° |
| 2026-05-05 13:38 | 42.04707 | 11.90589 | 6053 ft | 308 kts | 339° |
| 2026-05-05 13:38 | 42.06734 | 11.89726 | 5303 ft | 309 kts | 340° |
| 2026-05-05 13:39 | 42.08821 | 11.89041 | 4531 ft | 313 kts | 355° |
| 2026-05-05 13:39 | 42.10947 | 11.89653 | 3864 ft | 313 kts | 30° |
| 2026-05-05 13:39 | 42.12524 | 11.91542 | 3571 ft | 297 kts | 56° |
| 2026-05-05 13:39 | 42.13394 | 11.93929 | 3512 ft | 274 kts | 77° |
| 2026-05-05 13:40 | 42.13611 | 11.96380 | 3471 ft | 253 kts | 97° |
| 2026-05-05 13:40 | 42.13339 | 11.98607 | 3453 ft | 237 kts | 111° |
| 2026-05-05 13:40 | 42.12668 | 12.00531 | 3458 ft | 218 kts | 128° |
| 2026-05-05 13:40 | 42.11787 | 12.02110 | 3348 ft | 207 kts | 133° |
| 2026-05-05 13:41 | 42.10883 | 12.03616 | 3050 ft | 205 kts | 133° |
| 2026-05-05 13:41 | 42.09989 | 12.05086 | 3014 ft | 204 kts | 134° |
| 2026-05-05 13:41 | 42.09085 | 12.06577 | 2982 ft | 205 kts | 134° |
| 2026-05-05 13:41 | 42.08187 | 12.08062 | 2992 ft | 204 kts | 134° |
| 2026-05-05 13:42 | 42.07286 | 12.09554 | 2966 ft | 206 kts | 134° |
| 2026-05-05 13:42 | 42.06384 | 12.11049 | 2918 ft | 205 kts | 133° |
| 2026-05-05 13:42 | 42.05492 | 12.12537 | 2865 ft | 202 kts | 133° |
| 2026-05-05 13:42 | 42.04610 | 12.14004 | 2810 ft | 202 kts | 133° |
| 2026-05-05 13:43 | 42.03715 | 12.15484 | 2734 ft | 210 kts | 133° |
| 2026-05-05 13:43 | 42.02795 | 12.17014 | 2589 ft | 211 kts | 134° |
| 2026-05-05 13:43 | 42.01845 | 12.18436 | 2491 ft | 195 kts | 148° |
| 2026-05-05 13:43 | 42.00670 | 12.19116 | 2507 ft | 180 kts | 164° |
| 2026-05-05 13:44 | 41.99507 | 12.19789 | 2518 ft | 187 kts | 158° |
| 2026-05-05 13:44 | 41.98259 | 12.20434 | 2488 ft | 192 kts | 165° |
| 2026-05-05 13:44 | 41.96998 | 12.20954 | 2475 ft | 185 kts | 166° |
| 2026-05-05 13:44 | 41.95804 | 12.21444 | 2359 ft | 180 kts | 165° |
| 2026-05-05 13:45 | 41.94613 | 12.21941 | 2124 ft | 178 kts | 165° |
| 2026-05-05 13:45 | 41.93441 | 12.22435 | 1885 ft | 175 kts | 164° |
| 2026-05-05 13:45 | 41.92291 | 12.22918 | 1648 ft | 169 kts | 164° |
| 2026-05-05 13:45 | 41.91204 | 12.23376 | 1424 ft | 159 kts | 165° |
| 2026-05-05 13:46 | 41.90171 | 12.23809 | 1212 ft | 151 kts | 164° |
| 2026-05-05 13:46 | 41.89207 | 12.24213 | 1028 ft | 140 kts | 164° |
| 2026-05-05 13:46 | 41.88274 | 12.24603 | 845 ft | 144 kts | 161° |
| 2026-05-05 13:46 | 41.87321 | 12.25005 | 638 ft | 140 kts | 161° |
| 2026-05-05 13:47 | 41.86424 | 12.25373 | 428 ft | 129 kts | 161° |
| 2026-05-05 13:47 | 41.85605 | 12.25724 | 283 ft | 119 kts | 160° |
| 2026-05-05 13:47 | 41.84794 | 12.26067 | 123 ft | 127 kts | 160° |
| 2026-05-05 13:47 | 41.83922 | 12.26436 | 27 ft | 131 kts | 161° |
| 2026-05-05 13:48 | 41.83145 | 12.26758 | 11 ft | 102 kts | 163° |
| 2026-05-05 13:48 | 41.82749 | 12.26870 | 12 ft | 49 kts | 182° |
| 2026-05-05 13:48 | 41.82535 | 12.26819 | 10 ft | 21 kts | 193° |
| 2026-05-05 13:48 | 41.82393 | 12.26781 | 10 ft | 21 kts | 185° |
| 2026-05-05 13:49 | 41.82253 | 12.26809 | 10 ft | 20 kts | 162° |
| 2026-05-05 13:49 | 41.82120 | 12.26866 | 10 ft | 20 kts | 162° |
| 2026-05-05 13:49 | 41.81992 | 12.26920 | 11 ft | 19 kts | 163° |
| 2026-05-05 13:49 | 41.81867 | 12.26969 | 10 ft | 18 kts | 163° |
| 2026-05-05 13:50 | 41.81744 | 12.27019 | 11 ft | 19 kts | 163° |
| 2026-05-05 13:50 | 41.81605 | 12.27078 | 12 ft | 21 kts | 162° |
| 2026-05-05 13:50 | 41.81467 | 12.27137 | 11 ft | 21 kts | 162° |
| 2026-05-05 13:50 | 41.81332 | 12.27194 | 13 ft | 20 kts | 162° |
| 2026-05-05 13:51 | 41.81200 | 12.27249 | 11 ft | 19 kts | 162° |
| 2026-05-05 13:51 | 41.81071 | 12.27303 | 11 ft | 20 kts | 162° |
| 2026-05-05 13:51 | 41.80929 | 12.27351 | 12 ft | 22 kts | 178° |
| 2026-05-05 13:51 | 41.80783 | 12.27320 | 12 ft | 20 kts | 191° |
| 2026-05-05 13:52 | 41.80663 | 12.27238 | 12 ft | 20 kts | 237° |
| 2026-05-05 13:52 | 41.80614 | 12.27073 | 13 ft | 19 kts | 250° |
| 2026-05-05 13:52 | 41.80568 | 12.26906 | 14 ft | 19 kts | 250° |
| 2026-05-05 13:52 | 41.80525 | 12.26745 | 13 ft | 18 kts | 250° |
| 2026-05-05 13:53 | 41.80482 | 12.26592 | 15 ft | 17 kts | 249° |
| 2026-05-05 13:53 | 41.80440 | 12.26443 | 15 ft | 17 kts | 250° |
| 2026-05-05 13:53 | 41.80345 | 12.26372 | 14 ft | 18 kts | 163° |
| 2026-05-05 13:53 | 41.80221 | 12.26405 | 13 ft | 19 kts | 192° |
| 2026-05-05 13:54 | 41.80094 | 12.26330 | 15 ft | 21 kts | 205° |
| 2026-05-05 13:54 | 41.79959 | 12.26246 | 14 ft | 22 kts | 205° |
| 2026-05-05 13:54 | 41.79873 | 12.26194 | 14 ft | 12 kts | 205° |
| 2026-05-05 13:54 | 41.79800 | 12.26149 | 13 ft | 3 kts | 205° |
| 2026-05-05 13:55 | 41.79783 | 12.26135 | 14 ft | 3 kts | 220° |
| 2026-05-05 13:55 | 41.79767 | 12.26104 | 13 ft | 6 kts | 247° |
| 2026-05-05 13:55 | 41.79779 | 12.26029 | 13 ft | 0 kts | 295° |
| 2026-05-05 13:55 | 41.79780 | 12.26026 | 13 ft | 0 kts | 295° |
| 2026-05-05 13:57 | 41.79780 | 12.26025 | 13 ft | 0 kts | 295° |
| 2026-05-05 13:58 | 41.79781 | 12.26024 | 13 ft | 0 kts | 295° |
| 2026-05-05 13:58 | 41.79782 | 12.26022 | 13 ft | 0 kts | 295° |
| 2026-05-05 13:58 | 41.79785 | 12.26012 | 14 ft | 3 kts | 295° |
| 2026-05-05 13:58 | 41.79809 | 12.25945 | 13 ft | 13 kts | 295° |
| 2026-05-05 13:59 | 41.79743 | 12.25785 | 14 ft | 11 kts | 205° |
| 2026-05-05 13:59 | 41.79678 | 12.25743 | 13 ft | 7 kts | 211° |
| 2026-05-05 14:00 | 41.79644 | 12.25755 | 14 ft | 3 kts | 112° |
| 2026-05-05 14:00 | 41.79638 | 12.25772 | 13 ft | 3 kts | 113° |
| 2026-05-05 14:00 | 41.79631 | 12.25793 | 13 ft | 0 kts | 114° |